Time;durP1;ratioP1;P1;durP2;ratioP2;P2;SDS_P1;SDS_P2;PMS_P1;PMS_P2;Temp;Humidity;BMP_temperature;BMP_pressure;BME280_temperature;BME280_humidity;BME280_pressure;Samples;Min_cycle;Max_cycle;Signal;HPM_P1;HPM_P2
2022/02/01 00:02:08;;;;;;;1363.10;999.90;;;;;;;0.06;100.00;100664.13;5080474;28;20075;-80
2022/02/01 00:04:49;;;;;;;;;;;;;;;-0.02;100.00;100670.50;5082051;28;20062;-80
2022/02/01 00:07:23;;;;;;;1365.75;999.90;;;;;;;-0.02;100.00;100674.00;5080023;28;19928;-80
2022/02/01 00:10:07;;;;;;;1369.88;999.90;;;;;;;0.10;100.00;100665.34;5090426;28;20042;-79
2022/02/01 00:12:51;;;;;;;1368.60;999.90;;;;;;;0.05;100.00;100667.81;5086203;28;20049;-80
2022/02/01 00:18:22;;;;;;;1379.65;999.90;;;;;;;0.05;100.00;100671.31;5087328;28;20493;-81
2022/02/01 00:35:20;;;;;;;1426.50;999.90;;;;;;;0.22;100.00;100636.91;5100146;28;20048;-81
2022/02/01 00:38:00;;;;;;;1432.43;999.90;;;;;;;0.24;100.00;100629.47;5077999;28;20052;-80
2022/02/01 00:40:34;;;;;;;1434.63;999.90;;;;;;;0.30;100.00;100633.97;5078869;28;20040;-81
2022/02/01 00:43:02;;;;;;;1445.38;999.90;;;;;;;0.26;100.00;100632.75;5086143;28;20049;-81
2022/02/01 00:45:36;;;;;;;1459.53;999.90;;;;;;;0.30;100.00;100628.63;5095320;28;20044;-80
2022/02/01 00:48:06;;;;;;;1460.38;999.90;;;;;;;0.26;100.00;100616.69;5094388;28;20050;-80
2022/02/01 00:50:34;;;;;;;1460.80;999.90;;;;;;;0.31;100.00;100627.56;5093755;28;20059;-80
2022/02/01 00:53:02;;;;;;;1473.70;999.90;;;;;;;0.33;100.00;100638.91;5088899;28;20040;-80
2022/02/01 00:55:35;;;;;;;1477.88;999.90;;;;;;;0.29;100.00;100635.00;5078245;28;20492;-80
2022/02/01 00:58:03;;;;;;;1480.93;999.90;;;;;;;0.32;100.00;100642.59;5076847;28;20044;-81
2022/02/01 01:00:37;;;;;;;1493.30;999.90;;;;;;;0.32;100.00;100642.59;5089444;28;20060;-80
2022/02/01 01:03:11;;;;;;;1508.70;999.90;;;;;;;0.42;100.00;100641.34;5076626;28;20048;-80
2022/02/01 01:05:39;;;;;;;1528.47;999.90;;;;;;;0.45;100.00;100640.91;5083328;28;20045;-80
2022/02/01 01:08:13;;;;;;;1541.15;999.90;;;;;;;0.49;100.00;100637.56;5078742;28;20060;-80
2022/02/01 01:10:46;;;;;;;1565.50;999.90;;;;;;;0.54;100.00;100641.47;5059249;28;20041;-80
2022/02/01 01:13:42;;;;;;;1571.05;999.90;;;;;;;0.54;100.00;100639.63;5062223;28;20060;-81
2022/02/01 01:16:30;;;;;;;1579.05;999.90;;;;;;;0.56;100.00;100640.22;5061787;28;20053;-80
2022/02/01 01:43:31;;;;;;;1684.75;999.90;;;;;;;0.80;100.00;100643.16;5064613;28;20067;-80
2022/02/01 01:44:40;;;;;;;1699.90;999.90;;;;;;;0.84;100.00;100625.63;5070101;28;20044;-79
2022/02/01 01:53:15;;;;;;;1709.75;999.90;;;;;;;0.89;100.00;100622.31;5063860;28;20048;-80
2022/02/01 01:55:51;;;;;;;1710.28;999.90;;;;;;;0.83;100.00;100614.09;5068969;28;20045;-80
2022/02/01 01:58:25;;;;;;;1733.03;999.90;;;;;;;0.86;100.00;100610.16;5064195;28;20513;-80
2022/02/01 02:03:49;;;;;;;1747.50;999.90;;;;;;;0.92;100.00;100600.44;5055639;28;20060;-79
2022/02/01 02:06:23;;;;;;;1760.90;999.90;;;;;;;0.93;100.00;100604.75;5063940;28;20385;-80
2022/02/01 02:08:58;;;;;;;1767.93;999.90;;;;;;;0.82;100.00;100582.97;5065358;28;20037;-80
2022/02/01 02:11:40;;;;;;;1765.47;999.90;;;;;;;0.86;100.00;100594.09;5069481;28;20055;-80
2022/02/01 02:14:18;;;;;;;1761.55;999.90;;;;;;;0.89;100.00;100601.69;5064571;28;20051;-80
2022/02/01 02:16:55;;;;;;;1769.18;999.90;;;;;;;0.86;100.00;100591.41;5065212;28;20048;-80
2022/02/01 02:19:32;;;;;;;1783.93;999.90;;;;;;;0.89;100.00;100593.66;5071683;28;20056;-80
2022/02/01 02:22:08;;;;;;;1769.07;999.90;;;;;;;0.84;100.00;100588.97;5067602;28;20057;-79
2022/02/01 02:24:42;;;;;;;1773.90;999.90;;;;;;;0.83;100.00;100584.63;5066508;28;20052;-80
2022/02/01 02:27:16;;;;;;;1763.60;999.90;;;;;;;0.75;100.00;100582.22;5068156;28;20040;-80
2022/02/01 02:29:49;;;;;;;1743.25;999.90;;;;;;;0.70;100.00;100583.91;5069755;28;20043;-79
2022/02/01 02:32:24;;;;;;;1758.88;999.90;;;;;;;0.70;100.00;100592.75;5068537;28;20060;-80
2022/02/01 02:34:53;;;;;;;1765.28;999.90;;;;;;;0.66;100.00;100587.03;5068994;28;20052;-80
2022/02/01 02:37:31;;;;;;;1776.32;999.90;;;;;;;0.65;100.00;100577.34;5065149;28;20052;-79
2022/02/01 02:40:15;;;;;;;1782.40;999.90;;;;;;;0.60;100.00;100569.13;5066365;28;20587;-80
2022/02/01 02:45:35;;;;;;;1788.70;999.90;;;;;;;0.58;100.00;100591.78;5026466;28;20060;-80
2022/02/01 02:48:12;;;;;;;1788.10;999.90;;;;;;;0.62;100.00;100585.81;5076940;28;20044;-79
2022/02/01 02:50:45;;;;;;;1802.45;999.90;;;;;;;0.61;100.00;100584.16;5054946;28;20048;-80
2022/02/01 02:53:20;;;;;;;1806.60;999.90;;;;;;;0.60;100.00;100597.78;5062530;28;20131;-80
2022/02/01 02:55:49;;;;;;;1810.57;999.90;;;;;;;0.57;100.00;100599.03;5056008;28;20052;-80
2022/02/01 02:58:22;;;;;;;1813.20;999.90;;;;;;;0.59;100.00;100598.81;5071989;28;20420;-80
2022/02/01 03:00:55;;;;;;;1829.85;999.90;;;;;;;0.64;100.00;100604.34;5062214;28;20056;-80
2022/02/01 03:03:29;;;;;;;1836.18;999.90;;;;;;;0.56;100.00;100597.38;5056862;28;20064;-80
2022/02/01 03:06:06;;;;;;;1818.13;999.90;;;;;;;0.52;100.00;100600.69;5062252;28;20056;-80
2022/02/01 03:08:36;;;;;;;1816.35;999.90;;;;;;;0.51;100.00;100602.53;5056838;28;20053;-80
2022/02/01 03:11:11;;;;;;;1823.68;999.90;;;;;;;0.57;100.00;100599.03;5060746;28;20412;-80
2022/02/01 03:13:49;;;;;;;1825.22;999.90;;;;;;;0.45;100.00;100604.22;5057617;28;20070;-80
2022/02/01 03:16:35;;;;;;;1820.35;999.90;;;;;;;0.33;100.00;100588.03;5069826;28;20507;-80
2022/02/01 03:21:59;;;;;;;1811.68;999.90;;;;;;;0.27;100.00;100575.50;5055816;28;20405;-80
2022/02/01 03:24:34;;;;;;;1822.95;999.90;;;;;;;0.30;100.00;100588.47;5062306;28;20059;-80
2022/02/01 03:27:03;;;;;;;1832.15;999.90;;;;;;;0.27;100.00;100588.06;5063344;28;20048;-80
2022/02/01 03:29:36;;;;;;;1843.93;999.90;;;;;;;0.25;100.00;100584.75;5065214;28;20047;-79
2022/02/01 03:32:10;;;;;;;1841.95;999.90;;;;;;;0.23;100.00;100586.84;5083288;28;20066;-80
2022/02/01 03:34:44;;;;;;;1854.18;999.90;;;;;;;0.20;100.00;100593.44;5068480;28;20036;-79
2022/02/01 03:37:12;;;;;;;1868.10;999.90;;;;;;;0.26;100.00;100597.13;5066207;28;20063;-80
2022/02/01 03:39:47;;;;;;;1876.90;999.90;;;;;;;0.23;100.00;100587.66;5074999;28;20060;-79
2022/02/01 03:42:21;;;;;;;1883.95;999.90;;;;;;;0.30;100.00;100580.44;5063737;28;20048;-80
2022/02/01 03:44:55;;;;;;;1883.18;999.90;;;;;;;0.37;100.00;100583.06;5071646;28;20047;-79
2022/02/01 03:47:31;;;;;;;1883.63;999.90;;;;;;;0.29;100.00;100572.59;5077134;28;20048;-79
2022/02/01 03:50:07;;;;;;;1879.43;999.90;;;;;;;0.28;100.00;100589.72;5063589;28;20060;-79
2022/02/01 03:52:40;;;;;;;1869.60;999.90;;;;;;;0.23;100.00;100576.94;5063960;28;20048;-80
2022/02/01 03:55:15;;;;;;;1872.60;999.90;;;;;;;0.34;100.00;100572.78;5066234;28;20053;-80
2022/02/01 03:57:48;;;;;;;1884.15;999.90;;;;;;;0.39;100.00;100580.16;5063219;28;20048;-80
2022/02/01 04:00:21;;;;;;;1875.35;999.90;;;;;;;0.41;100.00;100576.25;5070997;28;20060;-80
2022/02/01 04:02:54;;;;;;;1883.90;999.90;;;;;;;0.38;100.00;100565.97;5067502;28;20059;-80
2022/02/01 04:05:27;;;;;;;1868.70;999.90;;;;;;;0.37;100.00;100575.03;5063269;28;20041;-79
2022/02/01 04:07:55;;;;;;;1838.28;999.90;;;;;;;0.34;100.00;100572.78;5067189;28;20049;-79
2022/02/01 04:10:30;;;;;;;1817.32;999.90;;;;;;;0.31;100.00;100575.91;5067972;28;20416;-80
2022/02/01 04:13:04;;;;;;;1818.25;999.90;;;;;;;0.22;100.00;100555.75;5073295;28;20404;-80
2022/02/01 04:15:38;;;;;;;1834.85;999.90;;;;;;;0.43;100.00;100557.28;5089975;28;20059;-80
2022/02/01 04:18:11;;;;;;;1854.88;999.90;;;;;;;0.50;100.00;100558.88;5080886;28;20178;-79
2022/02/01 04:20:45;;;;;;;1868.63;999.90;;;;;;;0.45;100.00;100548.00;5077602;28;20044;-80
2022/02/01 04:23:18;;;;;;;1859.57;999.90;;;;;;;0.56;100.00;100562.56;5066945;28;20044;-80
2022/02/01 04:25:50;;;;;;;1846.72;999.90;;;;;;;0.66;100.00;100551.38;5064830;28;20049;-80
2022/02/01 04:28:23;;;;;;;1839.63;999.90;;;;;;;0.71;100.00;100551.53;5065820;28;20064;-79
2022/02/01 04:30:56;;;;;;;1840.45;999.90;;;;;;;0.71;100.00;100556.09;5070482;28;20041;-80
2022/02/01 04:33:24;;;;;;;1834.72;999.90;;;;;;;0.71;100.00;100554.22;5059633;28;20060;-80
2022/02/01 04:35:57;;;;;;;1826.45;999.90;;;;;;;0.85;100.00;100573.69;5058766;28;20052;-79
2022/02/01 04:38:32;;;;;;;1824.03;999.90;;;;;;;0.87;100.00;100579.66;5069494;28;20087;-80
2022/02/01 04:41:01;;;;;;;1800.75;999.90;;;;;;;0.85;100.00;100584.41;5069299;28;20067;-80
2022/02/01 04:43:31;;;;;;;1782.22;999.90;;;;;;;0.81;100.00;100581.31;5059387;28;20040;-80
2022/02/01 04:46:06;;;;;;;1764.93;999.90;;;;;;;0.71;100.00;100572.16;5073639;28;20596;-80
2022/02/01 04:48:39;;;;;;;1755.55;999.90;;;;;;;0.70;100.00;100576.69;5065981;28;20048;-79
2022/02/01 04:51:12;;;;;;;1744.50;999.90;;;;;;;0.62;100.00;100561.72;5071497;28;20040;-80
2022/02/01 04:53:46;;;;;;;1726.85;999.90;;;;;;;0.65;100.00;100565.81;5059416;28;20049;-80
2022/02/01 04:56:21;;;;;;;1709.80;999.90;;;;;;;0.68;100.00;100565.38;5074526;28;20052;-79
2022/02/01 04:58:54;;;;;;;1719.05;999.90;;;;;;;0.72;100.00;100569.25;5062650;28;20060;-80
2022/02/01 05:01:37;;;;;;;1691.78;999.90;;;;;;;0.70;100.00;100576.69;5078254;28;20063;-80
2022/02/01 05:04:12;;;;;;;1707.72;999.90;;;;;;;0.64;100.00;100561.50;5072372;28;20060;-79
2022/02/01 05:06:40;;;;;;;1713.00;999.90;;;;;;;0.62;100.00;100555.50;5063314;28;20056;-79
2022/02/01 05:09:14;;;;;;;1706.25;999.90;;;;;;;0.62;100.00;100560.88;5074077;28;20044;-80
2022/02/01 05:11:50;;;;;;;1724.55;999.90;;;;;;;0.71;100.00;100556.91;5069341;28;20052;-79
2022/02/01 05:14:26;;;;;;;1745.65;999.90;;;;;;;0.87;100.00;100562.75;5063014;28;20068;-80
2022/02/01 05:16:59;;;;;;;1740.38;999.90;;;;;;;0.73;100.00;100575.44;5070885;28;20040;-79
2022/02/01 05:19:47;;;;;;;1748.20;999.90;;;;;;;0.78;100.00;100587.13;5070836;28;20045;-80
2022/02/01 05:22:20;;;;;;;1774.70;999.90;;;;;;;0.89;100.00;100593.66;5056278;28;20048;-80
2022/02/01 05:24:55;;;;;;;1766.20;999.90;;;;;;;0.94;100.00;100593.81;5066040;28;20049;-80
2022/02/01 05:27:30;;;;;;;1764.05;999.90;;;;;;;0.92;100.00;100587.84;5063974;28;20053;-79
2022/02/01 05:29:58;;;;;;;1746.53;999.90;;;;;;;0.77;100.00;100580.13;5082824;28;20040;-79
2022/02/01 05:32:31;;;;;;;1746.53;999.90;;;;;;;0.98;100.00;100591.50;5065905;28;20044;-79
2022/02/01 05:35:05;;;;;;;1746.70;999.90;;;;;;;0.84;100.00;100582.75;5074900;28;20519;-79
2022/02/01 05:37:39;;;;;;;1736.53;999.90;;;;;;;0.92;100.00;100579.81;5061209;28;20051;-80
2022/02/01 05:40:13;;;;;;;1737.57;999.90;;;;;;;0.88;100.00;100572.44;5064422;28;20053;-80
2022/02/01 05:42:46;;;;;;;1744.22;999.90;;;;;;;0.94;100.00;100563.50;5057108;28;20048;-80
2022/02/01 05:45:19;;;;;;;1760.03;999.90;;;;;;;0.87;100.00;100562.75;5070328;28;20516;-80
2022/02/01 05:47:53;;;;;;;1758.03;999.90;;;;;;;0.80;100.00;100569.00;5060211;28;20049;-80
2022/02/01 05:50:22;;;;;;;1761.07;999.90;;;;;;;0.84;100.00;100554.13;5071278;28;20071;-80
2022/02/01 05:52:50;;;;;;;1764.72;999.90;;;;;;;0.92;100.00;100560.25;5063703;28;20425;-80
2022/02/01 05:55:24;;;;;;;1778.18;999.90;;;;;;;0.93;100.00;100556.53;5057373;28;20049;-80
2022/02/01 05:57:59;;;;;;;1780.32;999.90;;;;;;;0.99;100.00;100550.28;5075874;28;20055;-80
2022/02/01 06:00:27;;;;;;;1787.50;999.90;;;;;;;0.95;100.00;100554.44;5074471;28;20053;-80
2022/02/01 06:03:01;;;;;;;1772.25;999.90;;;;;;;0.90;100.00;100554.28;5058162;28;20041;-80
2022/02/01 06:05:34;;;;;;;1779.03;999.90;;;;;;;0.99;100.00;100526.97;5060342;28;20048;-80
2022/02/01 06:08:09;;;;;;;1777.30;999.90;;;;;;;0.91;100.00;100516.56;5053714;28;20056;-80
2022/02/01 06:10:42;;;;;;;1794.03;999.90;;;;;;;0.96;100.00;100524.75;5066672;28;20052;-80
2022/02/01 06:13:16;;;;;;;1791.72;999.90;;;;;;;0.94;100.00;100524.16;5064488;28;20044;-79
2022/02/01 06:15:50;;;;;;;1780.95;999.90;;;;;;;0.90;100.00;100517.59;5065286;28;20044;-84
2022/02/01 06:18:23;;;;;;;1785.15;999.90;;;;;;;0.84;100.00;100524.66;5058609;28;20493;-80
2022/02/01 06:20:56;;;;;;;1788.50;999.90;;;;;;;0.91;100.00;100505.00;5059178;28;20048;-80
2022/02/01 06:23:29;;;;;;;1811.07;999.90;;;;;;;0.91;100.00;100507.69;5078726;28;20040;-79
2022/02/01 06:26:03;;;;;;;1810.10;999.90;;;;;;;0.92;100.00;100504.78;5058704;28;20068;-79
2022/02/01 06:28:37;;;;;;;1828.32;999.90;;;;;;;0.84;100.00;100510.41;5052365;28;20049;-79
2022/02/01 06:31:05;;;;;;;1835.15;999.90;;;;;;;0.90;100.00;100509.56;5054626;28;20056;-80
2022/02/01 06:33:39;;;;;;;1834.30;999.90;;;;;;;0.85;100.00;100512.88;5057257;28;20047;-80
2022/02/01 06:36:07;;;;;;;1833.68;999.90;;;;;;;0.84;100.00;100503.22;5058548;28;20421;-80
2022/02/01 06:38:40;;;;;;;1827.93;999.90;;;;;;;0.80;100.00;100496.66;5057386;28;20050;-80
2022/02/01 06:41:09;;;;;;;1855.57;999.90;;;;;;;0.94;100.00;100513.44;5053655;28;20513;-81
2022/02/01 06:43:45;;;;;;;1882.28;999.90;;;;;;;1.01;100.00;100508.03;5060784;28;20049;-80
2022/02/01 06:46:19;;;;;;;1865.07;999.90;;;;;;;0.98;100.00;100503.91;5056498;28;20052;-80
2022/02/01 06:48:52;;;;;;;1869.25;999.90;;;;;;;0.96;100.00;100508.66;5057332;28;20253;-80
2022/02/01 06:51:27;;;;;;;1873.78;999.90;;;;;;;0.95;100.00;100507.03;5059920;28;20044;-79
2022/02/01 06:54:01;;;;;;;1902.30;999.90;;;;;;;0.97;100.00;100509.50;5057352;28;20037;-80
2022/02/01 06:56:35;;;;;;;1916.80;999.90;;;;;;;0.98;100.00;100503.06;5051956;28;20404;-80
2022/02/01 06:59:10;;;;;;;1959.63;999.90;;;;;;;1.14;100.00;100496.34;5050469;28;20056;-80
2022/02/01 07:01:38;;;;;;;1956.90;999.90;;;;;;;1.11;100.00;100499.47;5053305;28;20048;-80
2022/02/01 07:04:06;;;;;;;1961.20;999.90;;;;;;;1.19;100.00;100499.19;5060406;28;20056;-81
2022/02/01 07:06:39;;;;;;;1955.00;999.90;;;;;;;1.09;100.00;100502.38;5061191;28;20056;-79
2022/02/01 07:09:14;;;;;;;1963.50;999.90;;;;;;;1.16;100.00;100479.00;5058309;28;20049;-79
2022/02/01 07:11:47;;;;;;;1958.07;999.90;;;;;;;1.19;100.00;100477.75;5057316;28;20044;-82
2022/02/01 07:14:22;;;;;;;1980.63;999.90;;;;;;;1.21;100.00;100469.47;5051429;28;20326;-81
2022/02/01 07:16:55;;;;;;;1985.22;999.90;;;;;;;1.21;100.00;100459.56;5038137;28;20040;-80
2022/02/01 07:19:28;;;;;;;1977.10;999.90;;;;;;;1.30;100.00;100455.53;5046173;28;20416;-80
2022/02/01 07:21:56;;;;;;;1993.82;999.90;;;;;;;1.38;100.00;100459.78;5044005;28;20056;-80
2022/02/01 07:24:36;;;;;;;1999.47;999.90;;;;;;;1.34;100.00;100461.25;5049445;28;20075;-81
2022/02/01 07:27:11;;;;;;;1999.90;999.90;;;;;;;1.35;100.00;100461.06;5050956;28;20056;-80
2022/02/01 07:29:46;;;;;;;1999.90;999.90;;;;;;;1.40;100.00;100470.31;5047897;28;20729;-80
2022/02/01 07:32:20;;;;;;;1999.90;999.90;;;;;;;1.43;100.00;100467.16;5051003;28;20409;-80
2022/02/01 07:34:53;;;;;;;1999.90;999.90;;;;;;;1.52;100.00;100463.94;5045635;28;20497;-79
2022/02/01 07:37:26;;;;;;;1999.90;999.90;;;;;;;1.47;100.00;100466.47;5044071;28;20118;-81
2022/02/01 07:40:01;;;;;;;1999.90;999.90;;;;;;;1.44;100.00;100452.72;5042269;28;20067;-80
2022/02/01 07:42:35;;;;;;;1999.90;999.90;;;;;;;1.48;100.00;100437.81;5048982;28;20044;-81
2022/02/01 07:45:06;;;;;;;1999.90;999.90;;;;;;;1.45;100.00;100432.88;5045688;28;20052;-81
2022/02/01 07:47:39;;;;;;;1999.90;999.90;;;;;;;1.48;100.00;100414.50;5043195;28;20055;-80
2022/02/01 07:50:13;;;;;;;1999.90;999.90;;;;;;;1.72;100.00;100419.16;5044383;28;20059;-81
2022/02/01 07:52:46;;;;;;;1999.90;999.90;;;;;;;1.66;100.00;100404.78;5038095;28;20068;-81
2022/02/01 07:55:20;;;;;;;1999.90;999.90;;;;;;;1.56;100.00;100377.66;5038733;28;20060;-80
2022/02/01 07:57:53;;;;;;;1999.90;999.90;;;;;;;1.68;100.00;100419.56;5042896;28;20044;-81
2022/02/01 08:00:28;;;;;;;1999.90;999.90;;;;;;;1.72;100.00;100419.16;5040391;28;20060;-80
2022/02/01 08:03:02;;;;;;;1999.90;999.90;;;;;;;1.63;100.00;100405.22;5039584;28;20056;-81
2022/02/01 08:05:36;;;;;;;1999.25;999.90;;;;;;;1.67;100.00;100409.06;5055657;28;20055;-80
2022/02/01 08:08:05;;;;;;;1991.13;999.90;;;;;;;1.62;100.00;100398.22;5038463;28;20060;-80
2022/02/01 08:10:43;;;;;;;1999.90;999.90;;;;;;;1.67;100.00;100391.13;5039045;28;20095;-81
2022/02/01 08:19:04;;;;;;;1999.90;999.90;;;;;;;1.68;100.00;100367.81;5041943;28;20044;-80
2022/02/01 08:21:42;;;;;;;1999.90;999.90;;;;;;;1.77;100.00;100354.88;5047974;28;20056;-81
2022/02/01 08:24:10;;;;;;;1999.90;999.90;;;;;;;1.69;100.00;100338.06;5040340;28;20048;-79
2022/02/01 08:26:43;;;;;;;1999.90;999.90;;;;;;;1.75;100.00;100336.31;5044045;28;20075;-80
2022/02/01 08:29:17;;;;;;;1999.90;999.90;;;;;;;1.73;100.00;100330.38;5041855;28;20416;-80
2022/02/01 08:31:47;;;;;;;1999.90;999.90;;;;;;;1.78;100.00;100330.53;5041696;28;20052;-79
2022/02/01 08:34:20;;;;;;;1999.90;999.90;;;;;;;1.87;100.00;100328.31;5046138;28;20051;-80
2022/02/01 08:36:53;;;;;;;1999.90;999.90;;;;;;;1.86;100.00;100310.56;5039896;28;20732;-81
2022/02/01 08:39:21;;;;;;;1999.90;999.90;;;;;;;1.85;100.00;100303.56;5044230;28;20059;-80
2022/02/01 08:41:55;;;;;;;1999.90;999.90;;;;;;;1.91;100.00;100299.97;5041590;28;20563;-81
2022/02/01 08:44:29;;;;;;;1999.90;999.90;;;;;;;1.96;100.00;100305.47;5041410;28;20047;-80
2022/02/01 08:47:05;;;;;;;1999.90;999.90;;;;;;;1.97;100.00;100282.13;5040566;28;20163;-80
2022/02/01 08:49:39;;;;;;;1999.90;999.90;;;;;;;1.98;100.00;100283.75;5043511;28;20044;-81
2022/02/01 08:52:11;;;;;;;1999.90;999.90;;;;;;;2.07;100.00;100271.59;5046038;28;20068;-81
2022/02/01 08:54:50;;;;;;;1999.90;999.90;;;;;;;2.02;100.00;100250.03;5038035;28;20234;-80
2022/02/01 08:57:25;;;;;;;1999.90;999.90;;;;;;;2.07;100.00;100255.50;5042606;28;20049;-80
2022/02/01 09:00:04;;;;;;;1999.90;999.90;;;;;;;2.07;100.00;100252.81;5044555;28;20059;-80
2022/02/01 09:02:39;;;;;;;1999.90;999.90;;;;;;;2.14;100.00;100240.09;5043978;28;20045;-80
2022/02/01 09:05:13;;;;;;;1999.90;999.90;;;;;;;2.15;100.00;100239.03;5042649;28;20082;-80
2022/02/01 09:07:46;;;;;;;1999.90;999.90;;;;;;;2.10;100.00;100230.91;5045010;28;20053;-81
2022/02/01 09:10:19;;;;;;;1999.90;999.90;;;;;;;2.08;100.00;100232.97;5045854;28;20079;-79
2022/02/01 09:12:52;;;;;;;1999.90;999.90;;;;;;;2.09;100.00;100215.03;5051288;28;20048;-80
2022/02/01 09:15:26;;;;;;;1999.90;999.90;;;;;;;2.14;100.00;100209.75;5053725;28;20049;-81
2022/02/01 09:18:01;;;;;;;1999.90;999.90;;;;;;;2.13;100.00;100202.75;5056441;28;20048;-80
2022/02/01 09:20:30;;;;;;;1999.90;999.90;;;;;;;2.17;100.00;100194.00;5061961;28;20071;-80
2022/02/01 09:23:03;;;;;;;1999.90;999.90;;;;;;;2.13;100.00;100192.84;5047617;28;20052;-80
2022/02/01 09:25:32;;;;;;;1999.90;999.90;;;;;;;2.16;100.00;100187.00;5050017;28;20056;-80
2022/02/01 09:28:05;;;;;;;1999.90;999.90;;;;;;;2.27;100.00;100185.34;5046802;28;20056;-79
2022/02/01 09:30:39;;;;;;;1999.90;999.90;;;;;;;2.32;100.00;100176.56;5036716;28;20536;-80
2022/02/01 09:33:13;;;;;;;1999.90;999.90;;;;;;;2.34;100.00;100172.59;5050495;28;20067;-80
2022/02/01 09:35:47;;;;;;;1999.90;999.90;;;;;;;2.36;100.00;100154.38;5044671;28;20048;-80
2022/02/01 09:38:20;;;;;;;1999.90;999.90;;;;;;;2.34;100.00;100145.72;5051817;28;20060;-81
2022/02/01 09:40:54;;;;;;;1999.90;999.90;;;;;;;2.31;100.00;100137.34;5055103;28;20048;-81
2022/02/01 09:43:27;;;;;;;1999.90;999.90;;;;;;;2.26;100.00;100142.63;5052474;28;20064;-81
2022/02/01 09:45:57;;;;;;;1999.90;999.90;;;;;;;2.35;100.00;100128.56;5043419;28;20053;-80
2022/02/01 09:48:32;;;;;;;1999.90;999.90;;;;;;;2.36;100.00;100122.16;5046308;28;20047;-81
2022/02/01 09:51:08;;;;;;;1999.90;999.90;;;;;;;2.41;100.00;100112.56;5043961;28;20056;-82
2022/02/01 09:53:41;;;;;;;1999.90;999.90;;;;;;;2.38;100.00;100106.59;5043794;28;20056;-81
2022/02/01 09:56:09;;;;;;;1999.90;999.90;;;;;;;2.37;100.00;100104.16;5045451;28;20048;-81
2022/02/01 09:58:40;;;;;;;1999.90;999.90;;;;;;;2.45;100.00;100089.56;5047379;28;20060;-80
2022/02/01 10:01:18;;;;;;;1999.90;999.90;;;;;;;2.50;100.00;100068.13;5042282;28;20060;-81
2022/02/01 10:04:01;;;;;;;1999.90;999.90;;;;;;;2.39;100.00;100053.72;5043438;28;20044;-81
2022/02/01 10:06:36;;;;;;;1999.90;999.90;;;;;;;2.46;100.00;100053.56;5047441;28;20055;-81
2022/02/01 10:09:12;;;;;;;1999.90;999.90;;;;;;;2.47;100.00;100031.84;5049029;28;20079;-81
2022/02/01 10:11:43;;;;;;;1999.90;999.90;;;;;;;2.48;100.00;100032.66;5046873;28;20049;-80
2022/02/01 10:14:24;;;;;;;1999.90;999.90;;;;;;;2.52;100.00;100015.00;5040658;28;20052;-81
2022/02/01 10:17:00;;;;;;;1999.90;999.90;;;;;;;2.50;100.00;100026.00;5046136;28;20966;-81
2022/02/01 10:19:30;;;;;;;1999.90;999.90;;;;;;;2.55;100.00;100022.56;5047038;28;20307;-80
2022/02/01 10:22:04;;;;;;;1999.90;999.90;;;;;;;2.42;100.00;99999.53;5045206;28;20067;-80
2022/02/01 10:24:41;;;;;;;1999.90;999.90;;;;;;;2.47;100.00;100014.91;5047140;28;20040;-82
2022/02/01 10:27:13;;;;;;;1999.90;999.90;;;;;;;2.42;100.00;99998.69;5043139;28;20559;-80
2022/02/01 10:30:03;;;;;;;1999.90;999.90;;;;;;;2.38;100.00;99993.81;5058158;28;20052;-81
2022/02/01 10:33:04;;;;;;;1999.90;999.90;;;;;;;2.43;100.00;99968.94;5037053;28;20469;-80
2022/02/01 10:35:55;;;;;;;1999.90;999.90;;;;;;;2.34;100.00;99952.41;5042801;28;20052;-80
2022/02/01 10:38:33;;;;;;;1999.90;999.90;;;;;;;2.23;100.00;99941.75;5045740;28;21089;-80
2022/02/01 10:41:12;;;;;;;1999.90;999.90;;;;;;;2.23;100.00;99921.06;5042040;28;20060;-80
2022/02/01 10:43:40;;;;;;;1999.90;999.90;;;;;;;2.25;100.00;99915.44;5044229;28;20059;-81
2022/02/01 10:46:16;;;;;;;1999.90;999.90;;;;;;;2.14;100.00;99904.56;5047271;28;20067;-81
2022/02/01 10:48:53;;;;;;;1999.90;999.90;;;;;;;2.21;100.00;99890.97;5039774;28;20047;-81
2022/02/01 10:51:28;;;;;;;1999.90;999.90;;;;;;;2.08;100.00;99876.00;5052628;28;20064;-80
2022/02/01 10:53:58;;;;;;;1999.90;999.90;;;;;;;1.98;100.00;99851.69;5045312;28;20079;-81
2022/02/01 10:56:27;;;;;;;1999.90;999.90;;;;;;;1.98;100.00;99855.16;5048152;28;20059;-82
2022/02/01 10:59:01;;;;;;;1999.90;999.90;;;;;;;1.86;100.00;99824.91;5043004;28;20049;-81
2022/02/01 11:01:34;;;;;;;1999.90;999.90;;;;;;;1.92;100.00;99829.31;5037255;28;20044;-81
2022/02/01 11:04:05;;;;;;;1999.90;999.90;;;;;;;1.80;100.00;99799.06;5050759;28;20063;-81
2022/02/01 11:06:40;;;;;;;1999.90;999.90;;;;;;;1.93;100.00;99801.41;5044001;28;20049;-79
2022/02/01 11:09:13;;;;;;;1999.90;999.90;;;;;;;1.89;100.00;99786.84;5044418;28;20055;-81
2022/02/01 11:11:51;;;;;;;1999.90;999.90;;;;;;;1.94;100.00;99767.34;5047992;28;20065;-81
2022/02/01 11:14:25;;;;;;;1999.90;999.90;;;;;;;1.84;100.00;99728.56;5051911;28;20060;-81
2022/02/01 11:17:05;;;;;;;1999.90;999.90;;;;;;;1.87;100.00;99746.06;5059173;28;20053;-80
2022/02/01 11:19:33;;;;;;;1999.90;999.90;;;;;;;1.80;100.00;99718.59;5046374;28;20752;-80
2022/02/01 11:22:18;;;;;;;1999.90;999.90;;;;;;;1.93;100.00;99714.75;5046545;28;20060;-81
2022/02/01 11:24:57;;;;;;;1999.90;999.90;;;;;;;1.95;100.00;99702.72;5042911;28;20052;-81
2022/02/01 11:27:44;;;;;;;1999.90;999.90;;;;;;;1.97;100.00;99697.91;5047945;28;20056;-81
2022/02/01 11:30:17;;;;;;;1999.90;999.90;;;;;;;2.00;100.00;99683.19;5044168;28;20091;-80
2022/02/01 11:32:53;;;;;;;1999.90;999.90;;;;;;;1.91;100.00;99672.06;5039276;28;20056;-81
2022/02/01 11:35:26;;;;;;;1999.90;999.90;;;;;;;2.07;100.00;99681.13;5051072;28;20067;-80
2022/02/01 11:38:06;;;;;;;1999.90;999.90;;;;;;;2.02;100.00;99659.59;5040445;28;20051;-81
2022/02/01 11:40:42;;;;;;;1999.90;999.90;;;;;;;2.07;100.00;99648.13;5042830;28;20064;-81
2022/02/01 11:43:18;;;;;;;1999.90;999.90;;;;;;;2.03;100.00;99639.72;5044835;28;20052;-81
2022/02/01 11:45:53;;;;;;;1999.90;999.90;;;;;;;2.04;100.00;99639.50;5045822;28;20501;-81
2022/02/01 11:48:27;;;;;;;1999.90;999.90;;;;;;;2.11;100.00;99615.16;5046894;28;20056;-80
2022/02/01 11:50:58;;;;;;;1999.90;999.90;;;;;;;2.10;100.00;99626.13;5040185;28;20060;-81
2022/02/01 11:53:39;;;;;;;1999.90;999.90;;;;;;;2.12;100.00;99600.66;5045763;28;20044;-81
2022/02/01 11:56:16;;;;;;;1999.90;999.90;;;;;;;2.17;100.00;99589.19;5049360;28;20053;-81
2022/02/01 11:59:00;;;;;;;1999.90;999.90;;;;;;;2.11;100.00;99572.19;5047803;28;20301;-81
2022/02/01 12:01:35;;;;;;;1999.90;999.90;;;;;;;2.21;100.00;99575.03;5042441;28;20063;-81
2022/02/01 12:04:11;;;;;;;1999.90;999.90;;;;;;;2.28;100.00;99558.72;5040464;28;20060;-81
2022/02/01 12:06:45;;;;;;;1999.90;999.90;;;;;;;2.35;100.00;99553.16;5044489;28;20044;-81
2022/02/01 12:09:21;;;;;;;1999.90;999.90;;;;;;;2.36;100.00;99547.53;5041295;28;20065;-81
2022/02/01 12:11:56;;;;;;;1999.90;999.90;;;;;;;2.38;100.00;99531.97;5037109;28;20564;-80
2022/02/01 12:14:25;;;;;;;1999.90;999.90;;;;;;;2.37;100.00;99508.84;5044652;28;20524;-81
2022/02/01 12:16:55;;;;;;;1999.90;999.90;;;;;;;2.47;100.00;99508.16;5049407;28;20056;-81
2022/02/01 12:19:35;;;;;;;1999.90;999.90;;;;;;;2.51;100.00;99484.28;5043514;28;20193;-81